createdAt,value
2017-08-13T00:02:11.861Z,16.40
2017-08-13T00:07:05.000Z,16.50
2017-08-13T00:09:32.482Z,16.50
2017-08-13T00:11:59.975Z,16.50
2017-08-13T00:14:27.456Z,16.50
2017-08-13T00:16:54.967Z,16.50
2017-08-13T00:19:22.439Z,16.50
2017-08-13T00:21:49.954Z,16.50
2017-08-13T00:24:17.436Z,16.50
2017-08-13T00:26:44.911Z,16.60
2017-08-13T00:29:12.415Z,16.50
2017-08-13T00:31:39.904Z,16.50
2017-08-13T00:34:07.398Z,16.50
2017-08-13T00:36:35.645Z,16.40
2017-08-13T00:39:03.140Z,16.40
2017-08-13T00:41:30.626Z,16.40
2017-08-13T00:43:58.136Z,16.40
2017-08-13T00:46:25.608Z,16.40
2017-08-13T00:48:53.116Z,16.30
2017-08-13T00:51:20.601Z,16.40
2017-08-13T00:53:48.106Z,16.40
2017-08-13T00:56:15.582Z,16.30
2017-08-13T00:58:43.843Z,16.30
2017-08-13T01:01:12.083Z,16.30
2017-08-13T01:03:39.584Z,16.20
2017-08-13T01:06:07.068Z,16.30
2017-08-13T01:08:34.574Z,16.30
2017-08-13T01:11:02.061Z,16.30
2017-08-13T01:13:29.565Z,16.30
2017-08-13T01:15:57.045Z,16.30
2017-08-13T01:18:24.539Z,16.30
2017-08-13T01:20:52.020Z,16.40
2017-08-13T01:23:19.516Z,16.30
2017-08-13T01:25:46.995Z,16.30
2017-08-13T01:28:14.484Z,16.30
2017-08-13T01:30:42.001Z,16.40
2017-08-13T01:33:09.484Z,16.40
2017-08-13T01:35:36.979Z,16.40
2017-08-13T01:38:04.460Z,16.40
2017-08-13T01:40:31.955Z,16.40
2017-08-13T01:42:59.436Z,16.40
2017-08-13T01:45:26.928Z,16.40
2017-08-13T01:47:54.411Z,16.40
2017-08-13T01:50:21.912Z,16.50
2017-08-13T01:52:49.392Z,16.50
2017-08-13T01:55:16.892Z,16.50
2017-08-13T01:57:47.354Z,16.40
2017-08-13T02:00:14.852Z,16.50
2017-08-13T02:02:42.335Z,16.50
2017-08-13T02:05:09.837Z,16.50
2017-08-13T02:07:37.319Z,16.50
2017-08-13T02:10:05.619Z,16.50
2017-08-13T02:12:33.867Z,16.50
2017-08-13T02:15:02.135Z,16.50
2017-08-13T02:17:30.384Z,16.50
2017-08-13T02:19:58.652Z,16.50
2017-08-13T02:22:26.132Z,16.50
2017-08-13T02:24:53.632Z,16.50
2017-08-13T02:27:21.114Z,16.50
2017-08-13T02:29:48.623Z,16.50
2017-08-13T02:32:16.872Z,16.50
2017-08-13T02:34:44.356Z,16.40
2017-08-13T02:37:11.857Z,16.50
2017-08-13T02:39:39.336Z,16.50
2017-08-13T02:42:06.839Z,16.50
2017-08-13T02:44:34.320Z,16.50
2017-08-13T02:47:01.819Z,16.50
2017-08-13T02:49:29.295Z,16.60
2017-08-13T02:51:56.796Z,16.50
2017-08-13T02:54:24.275Z,16.60
2017-08-13T02:56:51.779Z,16.50
2017-08-13T02:59:19.262Z,16.50
2017-08-13T03:01:46.767Z,16.50
2017-08-13T03:04:14.248Z,16.60
2017-08-13T03:06:41.747Z,16.50
2017-08-13T03:09:09.229Z,16.50
2017-08-13T03:11:36.740Z,16.50
2017-08-13T03:14:04.219Z,16.50
2017-08-13T03:16:31.708Z,16.50
2017-08-13T03:18:59.199Z,16.50
2017-08-13T03:21:26.696Z,16.60
2017-08-13T03:23:54.175Z,16.60
2017-08-13T03:26:21.686Z,16.60
2017-08-13T03:28:49.171Z,16.40
2017-08-13T03:31:16.653Z,16.40
2017-08-13T03:33:44.157Z,16.40
2017-08-13T03:36:11.643Z,16.40
2017-08-13T03:38:39.140Z,16.30
2017-08-13T03:41:06.626Z,16.20
2017-08-13T03:43:34.119Z,16.20
2017-08-13T03:46:01.596Z,16.30
2017-08-13T03:48:29.100Z,16.20
2017-08-13T03:50:56.575Z,16.20
2017-08-13T03:53:24.071Z,16.20
2017-08-13T03:55:51.564Z,16.20
2017-08-13T03:58:19.064Z,16.20
2017-08-13T04:00:47.311Z,16.20
2017-08-13T04:03:14.807Z,16.10
2017-08-13T04:05:42.288Z,16.20
2017-08-13T04:08:09.785Z,16.20
2017-08-13T04:10:37.263Z,16.20
2017-08-13T04:13:04.772Z,16.20
2017-08-13T04:15:32.255Z,16.30
2017-08-13T04:17:59.755Z,16.30
2017-08-13T04:20:27.233Z,16.20
2017-08-13T04:22:54.735Z,16.30
2017-08-13T04:25:22.216Z,16.30
2017-08-13T04:27:50.280Z,16.30
2017-08-13T04:30:17.765Z,16.20
2017-08-13T04:32:45.244Z,16.20
2017-08-13T04:35:12.744Z,16.20
2017-08-13T04:37:40.234Z,16.30
2017-08-13T04:40:07.724Z,16.20
2017-08-13T04:42:35.200Z,16.20
2017-08-13T04:45:02.699Z,16.20
2017-08-13T04:47:30.943Z,16.30
2017-08-13T04:49:58.452Z,16.20
2017-08-13T04:52:25.923Z,16.30
2017-08-13T04:54:53.418Z,16.40
2017-08-13T04:57:20.888Z,16.30
2017-08-13T04:59:48.384Z,16.30
2017-08-13T05:02:15.868Z,16.40
2017-08-13T05:04:43.364Z,16.40
2017-08-13T05:07:10.848Z,16.40
2017-08-13T05:09:38.365Z,16.40
2017-08-13T05:12:05.831Z,16.40
2017-08-13T05:14:33.323Z,16.40
2017-08-13T05:17:00.796Z,16.40
2017-08-13T05:19:28.287Z,16.40
2017-08-13T05:21:55.765Z,16.40
2017-08-13T05:24:23.263Z,16.30
2017-08-13T05:26:50.748Z,16.30
2017-08-13T05:29:18.248Z,16.30
2017-08-13T05:31:45.727Z,16.40
2017-08-13T05:34:13.240Z,16.40
2017-08-13T05:36:40.711Z,16.40
2017-08-13T05:39:08.183Z,16.50
2017-08-13T05:41:35.679Z,16.50
2017-08-13T05:44:03.927Z,16.40
2017-08-13T05:46:31.424Z,16.30
2017-08-13T05:48:58.912Z,16.50
2017-08-13T05:51:26.409Z,16.50
2017-08-13T05:53:53.887Z,16.50
2017-08-13T05:56:21.392Z,16.50
2017-08-13T05:58:48.867Z,16.50
2017-08-13T06:01:16.377Z,16.40
2017-08-13T06:03:43.855Z,16.50
2017-08-13T06:06:11.355Z,16.50
2017-08-13T06:08:38.845Z,16.50
2017-08-13T06:11:06.348Z,16.50
2017-08-13T06:13:33.829Z,16.60
2017-08-13T06:16:01.332Z,16.60
2017-08-13T06:18:28.823Z,16.60
2017-08-13T06:20:56.311Z,16.60
2017-08-13T06:23:23.792Z,16.60
2017-08-13T06:25:51.283Z,16.50
2017-08-13T06:28:18.761Z,16.60
2017-08-13T06:30:46.244Z,16.60
2017-08-13T06:33:13.761Z,16.60
2017-08-13T06:35:41.239Z,16.60
2017-08-13T06:38:08.751Z,16.60
2017-08-13T06:40:36.227Z,16.60
2017-08-13T06:43:03.723Z,16.60
2017-08-13T06:45:31.203Z,16.70
2017-08-13T06:47:58.707Z,16.60
2017-08-13T06:50:26.184Z,16.70
2017-08-13T06:52:54.452Z,16.60
2017-08-13T06:55:21.928Z,16.60
2017-08-13T06:57:49.423Z,16.70
2017-08-13T07:00:16.900Z,16.70
2017-08-13T07:02:44.400Z,16.70
2017-08-13T07:05:11.876Z,16.80
2017-08-13T07:07:39.381Z,16.70
2017-08-13T07:10:06.864Z,16.70
2017-08-13T07:12:34.364Z,16.70
2017-08-13T07:15:01.849Z,16.70
2017-08-13T07:17:29.365Z,16.80
2017-08-13T07:19:57.619Z,16.80
2017-08-13T07:22:25.125Z,16.80
2017-08-13T07:24:52.613Z,16.70
2017-08-13T07:27:20.127Z,16.80
2017-08-13T07:29:47.603Z,16.80
2017-08-13T07:32:15.185Z,16.80
2017-08-13T07:34:42.688Z,16.90
2017-08-13T07:37:10.168Z,16.90
2017-08-13T07:39:37.672Z,16.90
2017-08-13T07:42:05.165Z,17.00
2017-08-13T07:44:32.671Z,17.10
2017-08-13T07:47:00.161Z,17.10
2017-08-13T07:49:27.728Z,17.20
2017-08-13T07:51:55.216Z,17.30
2017-08-13T07:54:22.728Z,17.40
2017-08-13T08:00:57.620Z,17.70
2017-08-13T08:06:27.690Z,18.00
2017-08-13T08:08:55.198Z,18.00
2017-08-13T08:11:22.695Z,18.20
2017-08-13T08:13:50.216Z,18.50
2017-08-13T08:21:58.957Z,18.90
2017-08-13T08:24:27.245Z,18.80
2017-08-13T08:35:26.651Z,20.30
2017-08-13T08:37:54.500Z,20.40
2017-08-13T08:40:22.007Z,20.30
2017-08-13T08:42:49.494Z,20.30
2017-08-13T08:45:17.002Z,20.40
2017-08-13T08:47:44.520Z,20.40
2017-08-13T08:50:12.023Z,20.30
2017-08-13T08:52:39.500Z,20.40
2017-08-13T08:55:07.005Z,20.40
2017-08-13T08:57:34.488Z,20.30
2017-08-13T09:00:02.007Z,20.40
2017-08-13T09:02:29.489Z,20.10
2017-08-13T09:04:57.021Z,19.80
2017-08-13T09:07:24.521Z,19.70
2017-08-13T09:09:52.052Z,19.70
2017-08-13T09:12:19.570Z,19.70
2017-08-13T09:14:47.827Z,19.50
2017-08-13T09:17:15.335Z,19.40
2017-08-13T09:19:42.819Z,19.40
2017-08-13T09:22:10.323Z,19.30
2017-08-13T09:24:37.797Z,19.40
2017-08-13T09:27:05.336Z,19.70
2017-08-13T09:29:33.589Z,20.50
2017-08-13T09:32:01.873Z,20.70
2017-08-13T09:34:29.363Z,20.70
2017-08-13T09:36:56.868Z,21.10
2017-08-13T09:39:24.356Z,21.30
2017-08-13T09:41:51.873Z,21.70
2017-08-13T09:44:19.362Z,22.00
2017-08-13T09:46:46.884Z,22.20
2017-08-13T09:49:14.396Z,22.30
2017-08-13T09:51:41.906Z,22.30
2017-08-13T09:54:10.179Z,22.40
2017-08-13T09:56:37.669Z,22.40
2017-08-13T09:59:05.171Z,22.30
2017-08-13T10:01:32.668Z,22.40
2017-08-13T10:04:00.176Z,22.50
2017-08-13T10:06:27.672Z,22.50
2017-08-13T10:08:55.932Z,22.40
2017-08-13T10:11:24.235Z,22.50
2017-08-13T10:13:51.722Z,22.40
2017-08-13T10:16:19.996Z,22.90
2017-08-13T10:18:47.500Z,22.90
2017-08-13T10:21:15.006Z,23.20
2017-08-13T10:23:42.516Z,23.20
2017-08-13T10:26:09.994Z,23.20
2017-08-13T10:28:37.499Z,23.30
2017-08-13T10:31:04.976Z,23.40
2017-08-13T10:33:32.480Z,23.50
2017-08-13T10:35:59.968Z,23.40
2017-08-13T10:38:27.479Z,23.50
2017-08-13T10:40:55.724Z,23.20
2017-08-13T10:43:23.232Z,23.10
2017-08-13T10:45:50.737Z,23.20
2017-08-13T10:48:18.231Z,23.40
2017-08-13T10:50:45.721Z,23.40
2017-08-13T10:53:13.223Z,23.70
2017-08-13T10:55:40.704Z,23.60
2017-08-13T10:58:08.975Z,23.40
2017-08-13T11:00:36.453Z,23.30
2017-08-13T11:03:04.003Z,23.40
2017-08-13T11:05:31.484Z,23.40
2017-08-13T11:07:59.764Z,23.60
2017-08-13T11:10:27.259Z,23.50
2017-08-13T11:12:54.757Z,23.40
2017-08-13T11:15:22.255Z,23.00
2017-08-13T11:17:50.336Z,23.10
2017-08-13T11:20:17.831Z,22.80
2017-08-13T11:22:45.312Z,22.70
2017-08-13T11:25:13.572Z,22.90
2017-08-13T11:27:41.816Z,22.80
2017-08-13T11:30:09.313Z,22.80
2017-08-13T11:32:36.788Z,22.80
2017-08-13T11:35:04.305Z,22.70
2017-08-13T11:37:31.779Z,22.60
2017-08-13T11:39:59.291Z,22.60
2017-08-13T11:42:26.767Z,22.60
2017-08-13T11:44:54.280Z,22.60
2017-08-13T11:47:21.760Z,22.60
2017-08-13T11:49:49.264Z,22.50
2017-08-13T11:52:16.747Z,22.50
2017-08-13T11:54:44.271Z,22.50
2017-08-13T11:57:11.748Z,22.50
2017-08-13T11:59:40.003Z,22.70
2017-08-13T12:02:08.273Z,22.80
2017-08-13T12:04:35.775Z,22.70
2017-08-13T12:07:03.281Z,22.80
2017-08-13T12:09:30.787Z,22.80
2017-08-13T12:11:59.033Z,22.80
2017-08-13T12:14:26.531Z,22.70
2017-08-13T12:16:54.029Z,22.80
2017-08-13T12:19:22.319Z,22.70
2017-08-13T12:21:49.819Z,22.70
2017-08-13T12:24:17.309Z,22.70
2017-08-13T12:26:44.812Z,22.60
2017-08-13T12:29:12.296Z,22.60
2017-08-13T12:31:39.803Z,22.50
2017-08-13T12:34:08.050Z,22.50
2017-08-13T12:36:35.560Z,22.40
2017-08-13T12:39:03.035Z,22.50
2017-08-13T12:41:30.532Z,22.50
2017-08-13T12:43:58.014Z,22.40
2017-08-13T12:46:25.507Z,22.20
2017-08-13T12:48:52.990Z,22.20
2017-08-13T12:51:20.488Z,22.20
2017-08-13T12:53:47.963Z,22.10
2017-08-13T12:56:15.462Z,22.10
2017-08-13T12:58:42.943Z,22.20
2017-08-13T13:01:10.444Z,22.10
2017-08-13T13:03:37.924Z,22.10
2017-08-13T13:06:05.443Z,22.20
2017-08-13T13:08:32.919Z,22.20
2017-08-13T13:11:00.411Z,22.20
2017-08-13T13:13:27.896Z,22.20
2017-08-13T13:15:55.642Z,22.20
2017-08-13T13:18:23.139Z,22.20
2017-08-13T13:20:50.654Z,22.30
2017-08-13T13:23:18.167Z,22.30
2017-08-13T13:25:45.646Z,22.30
2017-08-13T13:28:13.143Z,22.30
2017-08-13T13:30:40.624Z,22.30
2017-08-13T13:33:08.128Z,22.40
2017-08-13T13:35:35.620Z,22.50
2017-08-13T13:38:03.888Z,22.40
2017-08-13T13:40:32.138Z,22.40
2017-08-13T13:42:59.641Z,22.40
2017-08-13T13:45:27.121Z,22.40
2017-08-13T13:47:54.616Z,22.30
2017-08-13T13:50:22.133Z,22.40
2017-08-13T13:52:49.650Z,22.30
2017-08-13T13:55:17.910Z,22.20
2017-08-13T13:57:45.415Z,22.20
2017-08-13T14:00:12.908Z,22.20
2017-08-13T14:02:41.173Z,22.20
2017-08-13T14:05:08.675Z,22.20
2017-08-13T14:07:36.185Z,22.10
2017-08-13T14:10:03.686Z,22.10
2017-08-13T14:15:20.517Z,22.20
2017-08-13T14:17:48.053Z,22.10
2017-08-13T14:20:15.537Z,22.20
2017-08-13T14:22:43.042Z,22.10
2017-08-13T14:25:10.529Z,22.00
2017-08-13T14:27:38.056Z,22.00
2017-08-13T14:30:05.544Z,22.00
2017-08-13T14:32:33.788Z,22.00
2017-08-13T14:35:01.287Z,22.00
2017-08-13T14:37:28.767Z,22.00
2017-08-13T14:39:56.308Z,21.90
2017-08-13T14:42:23.836Z,22.00
2017-08-13T14:44:51.408Z,22.00
2017-08-13T14:47:19.707Z,21.90
2017-08-13T14:49:47.225Z,21.90
2017-08-13T14:52:15.480Z,21.80
2017-08-13T14:54:42.979Z,21.80
2017-08-13T14:57:10.460Z,21.90
2017-08-13T14:59:38.728Z,22.10
2017-08-13T15:02:06.983Z,22.10
2017-08-13T15:04:35.267Z,22.10
2017-08-13T15:07:02.747Z,22.10
2017-08-13T15:09:30.247Z,22.20
2017-08-13T15:11:57.736Z,22.20
2017-08-13T15:14:25.244Z,22.20
2017-08-13T15:16:52.737Z,22.20
2017-08-13T15:19:20.357Z,22.20
2017-08-13T15:21:47.850Z,22.20
2017-08-13T15:24:15.345Z,22.20
2017-08-13T15:26:42.897Z,22.00
2017-08-13T15:29:10.413Z,22.00
2017-08-13T15:31:37.900Z,22.00
2017-08-13T15:34:05.428Z,22.10
2017-08-13T15:36:32.907Z,22.10
2017-08-13T15:39:01.152Z,22.10
2017-08-13T15:41:28.649Z,22.10
2017-08-13T15:43:56.131Z,22.20
2017-08-13T15:46:23.647Z,22.10
2017-08-13T15:48:51.135Z,22.00
2017-08-13T15:51:19.414Z,21.90
2017-08-13T15:53:46.892Z,21.90
2017-08-13T15:56:14.388Z,21.90
2017-08-13T15:58:41.877Z,21.90
2017-08-13T16:01:09.376Z,21.90
2017-08-13T16:03:36.873Z,22.00
2017-08-13T16:06:04.388Z,22.10
2017-08-13T16:08:31.874Z,22.20
2017-08-13T16:10:59.371Z,22.20
2017-08-13T16:13:26.847Z,22.20
2017-08-13T16:15:54.341Z,22.20
2017-08-13T16:18:21.834Z,22.20
2017-08-13T16:20:49.336Z,22.30
2017-08-13T16:23:16.832Z,22.30
2017-08-13T16:25:44.331Z,22.20
2017-08-13T16:28:11.812Z,22.30
2017-08-13T16:30:39.319Z,22.30
2017-08-13T16:33:06.796Z,22.30
2017-08-13T16:35:34.291Z,22.20
2017-08-13T16:38:01.781Z,22.20
2017-08-13T16:40:29.300Z,22.20
2017-08-13T16:42:56.790Z,22.20
2017-08-13T16:45:24.283Z,22.20
2017-08-13T16:47:51.779Z,22.20
2017-08-13T16:50:19.269Z,22.20
2017-08-13T16:52:46.772Z,22.20
2017-08-13T16:55:14.255Z,22.20
2017-08-13T16:57:41.768Z,22.20
2017-08-13T17:00:09.256Z,22.20
2017-08-13T17:02:36.756Z,22.20
2017-08-13T17:05:04.240Z,22.20
2017-08-13T17:07:31.740Z,22.20
2017-08-13T17:09:59.224Z,22.20
2017-08-13T17:12:26.728Z,22.20
2017-08-13T17:14:54.212Z,22.20
2017-08-13T17:17:21.713Z,22.20
2017-08-13T17:19:49.206Z,22.20
2017-08-13T17:22:16.711Z,22.20
2017-08-13T17:24:44.203Z,22.10
2017-08-13T17:27:12.476Z,22.20
2017-08-13T17:29:39.988Z,22.10
2017-08-13T17:32:07.463Z,22.30
2017-08-13T17:34:34.963Z,22.30
2017-08-13T17:37:02.444Z,22.30
2017-08-13T17:39:29.953Z,22.20
2017-08-13T17:41:57.435Z,22.20
2017-08-13T17:44:24.940Z,22.20
2017-08-13T17:46:52.438Z,22.20
2017-08-13T17:49:19.971Z,22.20
2017-08-13T17:51:47.464Z,22.20
2017-08-13T17:54:14.980Z,22.30
2017-08-13T17:56:42.476Z,22.30
2017-08-13T17:59:10.741Z,22.20
2017-08-13T18:01:38.233Z,22.20
2017-08-13T18:04:05.743Z,22.30
2017-08-13T18:06:33.230Z,22.20
2017-08-13T18:09:00.712Z,22.20
2017-08-13T18:11:28.216Z,22.20
2017-08-13T18:13:55.703Z,22.20
2017-08-13T18:16:23.204Z,22.20
2017-08-13T18:18:50.688Z,22.30
2017-08-13T18:21:18.192Z,22.20
2017-08-13T18:23:45.672Z,22.20
2017-08-13T18:26:13.209Z,22.10
2017-08-13T18:28:40.684Z,22.10
2017-08-13T18:31:08.185Z,22.00
2017-08-13T18:33:36.433Z,21.90
2017-08-13T18:36:04.714Z,21.90
2017-08-13T18:38:32.212Z,21.90
2017-08-13T18:40:59.715Z,21.80
2017-08-13T18:43:27.197Z,21.80
2017-08-13T18:45:54.699Z,21.70
2017-08-13T18:48:22.291Z,21.70
2017-08-13T18:50:49.781Z,21.60
2017-08-13T18:53:17.282Z,21.50
2017-08-13T18:55:44.759Z,21.50
2017-08-13T18:58:12.279Z,21.50
2017-08-13T19:00:40.536Z,21.40
2017-08-13T19:03:08.039Z,21.40
2017-08-13T19:05:35.520Z,21.40
2017-08-13T19:08:03.019Z,21.40
2017-08-13T19:10:30.512Z,21.40
2017-08-13T19:12:58.770Z,21.60
2017-08-13T19:15:27.027Z,21.50
2017-08-13T19:17:55.291Z,21.40
2017-08-13T19:20:33.527Z,21.40
2017-08-13T19:23:01.038Z,21.40
2017-08-13T19:25:29.283Z,21.30
2017-08-13T19:27:57.576Z,21.20
2017-08-13T19:30:25.060Z,21.20
2017-08-13T19:32:52.607Z,21.20
2017-08-13T19:35:20.094Z,21.20
2017-08-13T19:37:47.609Z,21.20
2017-08-13T19:40:15.079Z,21.20
2017-08-13T19:42:42.569Z,21.10
2017-08-13T19:45:10.085Z,21.10
2017-08-13T19:47:37.572Z,21.10
2017-08-13T19:50:05.080Z,21.10
2017-08-13T19:52:32.559Z,21.10
2017-08-13T19:55:00.055Z,21.10
2017-08-13T19:57:27.542Z,21.10
2017-08-13T19:59:55.056Z,21.10
2017-08-13T20:02:22.544Z,21.00
2017-08-13T20:04:50.052Z,21.00
2017-08-13T20:07:17.535Z,20.90
2017-08-13T20:09:45.060Z,20.90
2017-08-13T20:12:12.547Z,20.80
2017-08-13T20:14:40.056Z,20.90
2017-08-13T20:17:08.314Z,20.90
2017-08-13T20:19:36.577Z,21.00
2017-08-13T20:22:04.843Z,21.00
2017-08-13T20:24:33.096Z,21.10
2017-08-13T20:27:01.371Z,21.10
2017-08-13T20:29:28.877Z,21.10
2017-08-13T20:31:56.379Z,21.10
2017-08-13T20:34:23.880Z,21.10
2017-08-13T20:36:52.154Z,21.00
2017-08-13T20:39:20.409Z,21.00
2017-08-13T20:41:48.696Z,20.90
2017-08-13T20:44:16.204Z,20.80
2017-08-13T20:46:44.472Z,20.80
2017-08-13T20:49:12.727Z,20.70
2017-08-13T20:51:41.011Z,20.50
2017-08-13T20:54:08.492Z,20.50
2017-08-13T20:56:35.997Z,20.50
2017-08-13T20:59:03.485Z,20.40
2017-08-13T21:01:31.012Z,20.40
2017-08-13T21:03:58.511Z,20.30
2017-08-13T21:06:26.759Z,20.30
2017-08-13T21:08:55.035Z,20.30
2017-08-13T21:11:23.298Z,20.40
2017-08-13T21:13:50.820Z,20.30
2017-08-13T21:16:18.326Z,20.20
2017-08-13T21:18:45.836Z,20.10
2017-08-13T21:21:13.315Z,19.90
2017-08-13T21:23:40.825Z,19.90
2017-08-13T21:26:08.319Z,20.00
2017-08-13T21:28:35.838Z,20.10
2017-08-13T21:31:03.326Z,20.20
2017-08-13T21:33:30.853Z,20.20
2017-08-13T21:35:58.343Z,20.20
2017-08-13T21:38:25.848Z,20.30
2017-08-13T21:40:54.107Z,20.00
2017-08-13T21:43:21.615Z,20.00
2017-08-13T21:45:49.745Z,20.00
2017-08-13T21:48:17.257Z,20.00
2017-08-13T21:50:44.740Z,20.10
2017-08-13T21:53:12.256Z,20.20
2017-08-13T21:55:39.752Z,20.20
2017-08-13T21:58:07.240Z,20.30
2017-08-13T22:00:35.687Z,20.30
2017-08-13T22:03:03.935Z,20.20
2017-08-13T22:05:31.440Z,20.20
2017-08-13T22:07:58.926Z,20.10
2017-08-13T22:10:26.430Z,20.00
2017-08-13T22:12:53.918Z,19.90
2017-08-13T22:15:21.441Z,19.80
2017-08-13T22:17:48.937Z,19.70
2017-08-13T22:20:16.441Z,19.70
2017-08-13T22:22:43.915Z,19.60
2017-08-13T22:25:11.436Z,19.50
2017-08-13T22:27:39.684Z,19.60
2017-08-13T22:30:07.162Z,19.50
2017-08-13T22:32:34.683Z,19.60
2017-08-13T22:35:02.928Z,19.40
2017-08-13T22:37:30.423Z,19.30
2017-08-13T22:39:57.900Z,19.50
2017-08-13T22:42:25.407Z,19.60
2017-08-13T22:44:52.887Z,19.60
2017-08-13T22:47:20.401Z,19.70
2017-08-13T22:49:47.883Z,19.70
2017-08-13T22:52:15.387Z,19.60
2017-08-13T22:54:42.876Z,19.50
2017-08-13T22:57:10.392Z,19.50
2017-08-13T22:59:37.867Z,19.40
2017-08-13T23:02:06.117Z,19.40
2017-08-13T23:04:34.382Z,19.40
2017-08-13T23:07:02.637Z,19.40
2017-08-13T23:09:30.899Z,19.20
2017-08-13T23:11:58.379Z,19.10
2017-08-13T23:14:25.892Z,19.10
2017-08-13T23:16:53.373Z,19.20
2017-08-13T23:19:20.878Z,19.30
2017-08-13T23:21:49.120Z,19.30
2017-08-13T23:24:17.405Z,19.30
2017-08-13T23:26:44.887Z,19.30
2017-08-13T23:29:12.405Z,19.10
2017-08-13T23:31:39.883Z,19.00
2017-08-13T23:34:07.375Z,18.90
2017-08-13T23:36:34.883Z,18.80
2017-08-13T23:39:02.362Z,18.90
2017-08-13T23:41:29.863Z,19.00
2017-08-13T23:43:57.344Z,18.90
2017-08-13T23:46:24.860Z,18.80
2017-08-13T23:48:52.344Z,18.80
2017-08-13T23:51:19.871Z,18.70
2017-08-13T23:53:47.360Z,18.60
2017-08-13T23:56:14.868Z,18.60
2017-08-13T23:58:42.348Z,18.70
